Terminal Aerodrome Forecast
Issued by NWS

Home | Current Version | Previous Version | Graphics & Text | Print | Product List | Glossary On
Versions: 1 2 3 4 5 6 7 8 9 10 11 12 13
000
FTUS43 KGRB 252300
TAFMTW
TAF
KMTW 252325Z 2600/2624 02010KT P6SM BKN110
     FM260300 35009KT P6SM SKC
     FM261600 36010G16KT P6SM FEW040=

USA.gov is the U.S. government's official web portal to all federal, state and local government web resources and services.